sensor_id;sensor_type;location;lat;lon;timestamp;temperature;humidity
12911;DHT22;6523;49.758;6.120;2023-04-03T00:01:30;3.50;99.90
12911;DHT22;6523;49.758;6.120;2023-04-03T00:03:56;3.50;99.90
12911;DHT22;6523;49.758;6.120;2023-04-03T00:06:22;3.50;99.90
12911;DHT22;6523;49.758;6.120;2023-04-03T00:08:48;3.50;99.90
12911;DHT22;6523;49.758;6.120;2023-04-03T00:11:14;3.40;99.90
12911;DHT22;6523;49.758;6.120;2023-04-03T00:13:41;3.40;99.90
12911;DHT22;6523;49.758;6.120;2023-04-03T00:16:08;3.40;99.90
12911;DHT22;6523;49.758;6.120;2023-04-03T00:18:35;3.40;99.90
12911;DHT22;6523;49.758;6.120;2023-04-03T00:21:00;3.40;99.90
12911;DHT22;6523;49.758;6.120;2023-04-03T00:23:26;3.40;99.90
12911;DHT22;6523;49.758;6.120;2023-04-03T00:25:52;3.40;99.90
12911;DHT22;6523;49.758;6.120;2023-04-03T00:28:18;3.30;99.90
12911;DHT22;6523;49.758;6.120;2023-04-03T00:30:44;3.30;99.90
12911;DHT22;6523;49.758;6.120;2023-04-03T00:33:12;3.30;99.90
12911;DHT22;6523;49.758;6.120;2023-04-03T00:35:38;3.30;99.90
12911;DHT22;6523;49.758;6.120;2023-04-03T00:38:03;3.30;99.90
12911;DHT22;6523;49.758;6.120;2023-04-03T00:40:34;3.30;99.90
12911;DHT22;6523;49.758;6.120;2023-04-03T00:43:05;3.30;99.90
12911;DHT22;6523;49.758;6.120;2023-04-03T00:45:39;3.30;99.90
12911;DHT22;6523;49.758;6.120;2023-04-03T00:48:08;3.30;99.90
12911;DHT22;6523;49.758;6.120;2023-04-03T00:50:37;3.30;99.90
12911;DHT22;6523;49.758;6.120;2023-04-03T00:53:05;3.30;99.90
12911;DHT22;6523;49.758;6.120;2023-04-03T00:55:32;3.40;99.90
12911;DHT22;6523;49.758;6.120;2023-04-03T00:58:00;3.30;99.90
12911;DHT22;6523;49.758;6.120;2023-04-03T01:00:26;3.30;99.90
12911;DHT22;6523;49.758;6.120;2023-04-03T01:02:52;3.40;99.90
12911;DHT22;6523;49.758;6.120;2023-04-03T01:05:19;3.30;99.90
12911;DHT22;6523;49.758;6.120;2023-04-03T01:07:46;3.40;99.90
12911;DHT22;6523;49.758;6.120;2023-04-03T01:10:14;3.40;99.90
12911;DHT22;6523;49.758;6.120;2023-04-03T01:12:44;3.30;99.90
12911;DHT22;6523;49.758;6.120;2023-04-03T01:15:13;3.30;99.90
12911;DHT22;6523;49.758;6.120;2023-04-03T01:17:43;3.30;99.90
12911;DHT22;6523;49.758;6.120;2023-04-03T01:20:21;3.20;99.90
12911;DHT22;6523;49.758;6.120;2023-04-03T01:25:35;3.10;99.90
12911;DHT22;6523;49.758;6.120;2023-04-03T01:28:09;2.80;99.90
12911;DHT22;6523;49.758;6.120;2023-04-03T01:30:42;2.80;99.90
12911;DHT22;6523;49.758;6.120;2023-04-03T01:33:09;2.70;99.90
12911;DHT22;6523;49.758;6.120;2023-04-03T01:35:35;2.80;99.90
12911;DHT22;6523;49.758;6.120;2023-04-03T01:38:01;2.70;99.90
12911;DHT22;6523;49.758;6.120;2023-04-03T01:40:26;2.50;99.90
12911;DHT22;6523;49.758;6.120;2023-04-03T01:42:52;2.30;99.90
12911;DHT22;6523;49.758;6.120;2023-04-03T01:45:17;2.20;99.90
12911;DHT22;6523;49.758;6.120;2023-04-03T01:47:43;2.20;99.90
12911;DHT22;6523;49.758;6.120;2023-04-03T01:50:08;2.20;99.90
12911;DHT22;6523;49.758;6.120;2023-04-03T01:52:34;2.30;99.90
12911;DHT22;6523;49.758;6.120;2023-04-03T01:54:59;2.10;99.90
12911;DHT22;6523;49.758;6.120;2023-04-03T01:57:25;1.90;99.90
12911;DHT22;6523;49.758;6.120;2023-04-03T01:59:51;1.70;99.90
12911;DHT22;6523;49.758;6.120;2023-04-03T02:02:16;1.80;99.90
12911;DHT22;6523;49.758;6.120;2023-04-03T02:04:42;1.70;99.90
12911;DHT22;6523;49.758;6.120;2023-04-03T02:07:08;1.80;99.90
12911;DHT22;6523;49.758;6.120;2023-04-03T02:09:33;1.80;99.90
12911;DHT22;6523;49.758;6.120;2023-04-03T02:11:59;1.70;99.90
12911;DHT22;6523;49.758;6.120;2023-04-03T02:14:25;1.60;99.90
12911;DHT22;6523;49.758;6.120;2023-04-03T02:16:52;1.60;99.90
12911;DHT22;6523;49.758;6.120;2023-04-03T02:19:18;1.40;99.90
12911;DHT22;6523;49.758;6.120;2023-04-03T02:21:43;1.50;99.90
12911;DHT22;6523;49.758;6.120;2023-04-03T02:24:09;1.40;99.90
12911;DHT22;6523;49.758;6.120;2023-04-03T02:26:35;1.40;99.90
12911;DHT22;6523;49.758;6.120;2023-04-03T02:29:01;1.20;99.90
12911;DHT22;6523;49.758;6.120;2023-04-03T02:31:26;1.20;99.90
12911;DHT22;6523;49.758;6.120;2023-04-03T02:33:52;1.20;99.90
12911;DHT22;6523;49.758;6.120;2023-04-03T02:36:17;1.10;99.90
12911;DHT22;6523;49.758;6.120;2023-04-03T02:38:43;1.00;99.90
12911;DHT22;6523;49.758;6.120;2023-04-03T02:41:10;1.00;99.90
12911;DHT22;6523;49.758;6.120;2023-04-03T02:43:38;1.00;99.90
12911;DHT22;6523;49.758;6.120;2023-04-03T02:46:04;0.90;99.90
12911;DHT22;6523;49.758;6.120;2023-04-03T02:48:30;0.90;99.90
12911;DHT22;6523;49.758;6.120;2023-04-03T02:50:56;0.90;99.90
12911;DHT22;6523;49.758;6.120;2023-04-03T02:53:21;0.80;99.90
12911;DHT22;6523;49.758;6.120;2023-04-03T02:55:47;0.30;99.90
12911;DHT22;6523;49.758;6.120;2023-04-03T02:58:13;0.10;99.90
12911;DHT22;6523;49.758;6.120;2023-04-03T03:00:39;0.00;99.90
12911;DHT22;6523;49.758;6.120;2023-04-03T03:03:05;0.30;99.90
12911;DHT22;6523;49.758;6.120;2023-04-03T03:05:30;0.40;99.90
12911;DHT22;6523;49.758;6.120;2023-04-03T03:07:56;0.40;99.90
12911;DHT22;6523;49.758;6.120;2023-04-03T03:10:22;0.40;99.90
12911;DHT22;6523;49.758;6.120;2023-04-03T03:12:48;0.40;99.90
12911;DHT22;6523;49.758;6.120;2023-04-03T03:15:14;0.30;99.90
12911;DHT22;6523;49.758;6.120;2023-04-03T03:17:40;0.30;99.90
12911;DHT22;6523;49.758;6.120;2023-04-03T03:20:07;0.20;99.90
12911;DHT22;6523;49.758;6.120;2023-04-03T03:22:33;0.10;99.90
12911;DHT22;6523;49.758;6.120;2023-04-03T03:24:59;-0.10;99.90
12911;DHT22;6523;49.758;6.120;2023-04-03T03:27:26;-0.30;99.90
12911;DHT22;6523;49.758;6.120;2023-04-03T03:29:51;-0.40;99.90
12911;DHT22;6523;49.758;6.120;2023-04-03T03:32:17;-0.40;99.90
12911;DHT22;6523;49.758;6.120;2023-04-03T03:34:43;-0.20;99.90
12911;DHT22;6523;49.758;6.120;2023-04-03T03:37:08;-0.10;99.90
12911;DHT22;6523;49.758;6.120;2023-04-03T03:39:34;-0.10;99.90
12911;DHT22;6523;49.758;6.120;2023-04-03T03:41:59;0.00;99.90
12911;DHT22;6523;49.758;6.120;2023-04-03T03:44:25;0.00;99.90
12911;DHT22;6523;49.758;6.120;2023-04-03T03:46:51;-0.10;99.90
12911;DHT22;6523;49.758;6.120;2023-04-03T03:49:16;0.00;99.90
12911;DHT22;6523;49.758;6.120;2023-04-03T03:51:42;-0.10;99.90
12911;DHT22;6523;49.758;6.120;2023-04-03T03:54:07;-0.20;99.90
12911;DHT22;6523;49.758;6.120;2023-04-03T03:56:34;-0.30;99.90
12911;DHT22;6523;49.758;6.120;2023-04-03T03:58:59;-0.50;99.90
12911;DHT22;6523;49.758;6.120;2023-04-03T04:01:25;-0.60;99.90
12911;DHT22;6523;49.758;6.120;2023-04-03T04:03:51;-0.50;99.90
12911;DHT22;6523;49.758;6.120;2023-04-03T04:06:16;-0.50;99.90
12911;DHT22;6523;49.758;6.120;2023-04-03T04:08:42;-0.40;99.90
12911;DHT22;6523;49.758;6.120;2023-04-03T04:11:08;-0.40;99.90
12911;DHT22;6523;49.758;6.120;2023-04-03T04:13:34;-0.60;99.90
12911;DHT22;6523;49.758;6.120;2023-04-03T04:16:00;-0.80;99.90
12911;DHT22;6523;49.758;6.120;2023-04-03T04:18:25;-0.80;99.90
12911;DHT22;6523;49.758;6.120;2023-04-03T04:20:51;-0.70;99.90
12911;DHT22;6523;49.758;6.120;2023-04-03T04:23:18;-0.70;99.90
12911;DHT22;6523;49.758;6.120;2023-04-03T04:25:48;-0.70;99.90
12911;DHT22;6523;49.758;6.120;2023-04-03T04:28:14;-0.80;99.90
12911;DHT22;6523;49.758;6.120;2023-04-03T04:30:40;-0.80;99.90
12911;DHT22;6523;49.758;6.120;2023-04-03T04:33:05;-0.70;99.90
12911;DHT22;6523;49.758;6.120;2023-04-03T04:35:32;-0.80;99.90
12911;DHT22;6523;49.758;6.120;2023-04-03T04:37:58;-0.80;99.90
12911;DHT22;6523;49.758;6.120;2023-04-03T04:40:23;-0.90;99.90
12911;DHT22;6523;49.758;6.120;2023-04-03T04:42:49;-0.90;99.90
12911;DHT22;6523;49.758;6.120;2023-04-03T04:45:14;-1.00;99.90
12911;DHT22;6523;49.758;6.120;2023-04-03T04:47:41;-1.00;99.90
12911;DHT22;6523;49.758;6.120;2023-04-03T04:50:06;-1.10;99.90
12911;DHT22;6523;49.758;6.120;2023-04-03T04:52:32;-1.20;99.90
12911;DHT22;6523;49.758;6.120;2023-04-03T04:54:58;-1.30;99.90
12911;DHT22;6523;49.758;6.120;2023-04-03T04:57:23;-1.10;99.90
12911;DHT22;6523;49.758;6.120;2023-04-03T04:59:49;-1.10;99.90
12911;DHT22;6523;49.758;6.120;2023-04-03T05:02:15;-1.10;99.90
12911;DHT22;6523;49.758;6.120;2023-04-03T05:04:40;-1.00;99.90
12911;DHT22;6523;49.758;6.120;2023-04-03T05:07:06;-0.90;99.90
12911;DHT22;6523;49.758;6.120;2023-04-03T05:09:31;-0.90;99.90
12911;DHT22;6523;49.758;6.120;2023-04-03T05:11:57;-0.90;99.90
12911;DHT22;6523;49.758;6.120;2023-04-03T05:14:23;-0.90;99.90
12911;DHT22;6523;49.758;6.120;2023-04-03T05:16:48;-1.00;99.90
12911;DHT22;6523;49.758;6.120;2023-04-03T05:19:14;-1.00;99.90
12911;DHT22;6523;49.758;6.120;2023-04-03T05:21:40;-1.10;99.90
12911;DHT22;6523;49.758;6.120;2023-04-03T05:24:05;-1.20;99.90
12911;DHT22;6523;49.758;6.120;2023-04-03T05:26:34;-1.20;99.90
12911;DHT22;6523;49.758;6.120;2023-04-03T05:29:00;-1.10;99.90
12911;DHT22;6523;49.758;6.120;2023-04-03T05:31:25;-1.10;99.90
12911;DHT22;6523;49.758;6.120;2023-04-03T05:33:51;-1.00;99.90
12911;DHT22;6523;49.758;6.120;2023-04-03T05:36:16;-1.00;99.90
12911;DHT22;6523;49.758;6.120;2023-04-03T05:38:42;-1.00;99.90
12911;DHT22;6523;49.758;6.120;2023-04-03T05:41:08;-1.00;99.90
12911;DHT22;6523;49.758;6.120;2023-04-03T05:43:33;-1.00;99.90
12911;DHT22;6523;49.758;6.120;2023-04-03T05:46:00;-1.00;99.90
12911;DHT22;6523;49.758;6.120;2023-04-03T05:48:25;-1.00;99.90
12911;DHT22;6523;49.758;6.120;2023-04-03T05:50:51;-1.10;99.90
12911;DHT22;6523;49.758;6.120;2023-04-03T05:53:28;-1.20;99.90
12911;DHT22;6523;49.758;6.120;2023-04-03T05:55:54;-1.10;99.90
12911;DHT22;6523;49.758;6.120;2023-04-03T05:58:20;-1.20;99.90
12911;DHT22;6523;49.758;6.120;2023-04-03T06:00:45;-1.10;99.90
12911;DHT22;6523;49.758;6.120;2023-04-03T06:03:11;-1.00;99.90
12911;DHT22;6523;49.758;6.120;2023-04-03T06:05:37;-0.80;99.90
12911;DHT22;6523;49.758;6.120;2023-04-03T06:08:03;-0.90;99.90
12911;DHT22;6523;49.758;6.120;2023-04-03T06:10:29;-0.70;99.90
12911;DHT22;6523;49.758;6.120;2023-04-03T06:12:55;-0.80;99.90
12911;DHT22;6523;49.758;6.120;2023-04-03T06:15:20;-0.90;99.90
12911;DHT22;6523;49.758;6.120;2023-04-03T06:17:46;-0.70;99.90
12911;DHT22;6523;49.758;6.120;2023-04-03T06:20:12;-0.80;99.90
12911;DHT22;6523;49.758;6.120;2023-04-03T06:22:38;-0.70;99.90
12911;DHT22;6523;49.758;6.120;2023-04-03T06:25:04;-0.60;99.90
12911;DHT22;6523;49.758;6.120;2023-04-03T06:27:30;-0.60;99.90
12911;DHT22;6523;49.758;6.120;2023-04-03T06:29:56;-0.60;99.90
12911;DHT22;6523;49.758;6.120;2023-04-03T06:32:21;-0.50;99.90
12911;DHT22;6523;49.758;6.120;2023-04-03T06:34:47;-0.40;99.90
12911;DHT22;6523;49.758;6.120;2023-04-03T06:37:17;-0.30;99.90
12911;DHT22;6523;49.758;6.120;2023-04-03T06:39:43;-0.30;99.90
12911;DHT22;6523;49.758;6.120;2023-04-03T06:42:09;-0.20;99.90
12911;DHT22;6523;49.758;6.120;2023-04-03T06:44:35;-0.10;99.90
12911;DHT22;6523;49.758;6.120;2023-04-03T06:47:01;0.10;99.90
12911;DHT22;6523;49.758;6.120;2023-04-03T06:49:26;0.40;99.90
12911;DHT22;6523;49.758;6.120;2023-04-03T06:51:52;0.60;99.90
12911;DHT22;6523;49.758;6.120;2023-04-03T06:54:17;0.80;99.90
12911;DHT22;6523;49.758;6.120;2023-04-03T06:56:43;1.00;99.90
12911;DHT22;6523;49.758;6.120;2023-04-03T06:59:11;1.20;99.90
12911;DHT22;6523;49.758;6.120;2023-04-03T07:01:38;1.40;99.90
12911;DHT22;6523;49.758;6.120;2023-04-03T07:04:03;1.60;99.90
12911;DHT22;6523;49.758;6.120;2023-04-03T07:06:29;1.80;99.90
12911;DHT22;6523;49.758;6.120;2023-04-03T07:08:56;1.90;99.90
12911;DHT22;6523;49.758;6.120;2023-04-03T07:11:22;2.00;99.90
12911;DHT22;6523;49.758;6.120;2023-04-03T07:13:48;2.20;99.90
12911;DHT22;6523;49.758;6.120;2023-04-03T07:16:14;2.30;99.90
12911;DHT22;6523;49.758;6.120;2023-04-03T07:18:39;2.50;99.90
12911;DHT22;6523;49.758;6.120;2023-04-03T07:21:06;2.70;99.90
12911;DHT22;6523;49.758;6.120;2023-04-03T07:23:32;2.90;99.90
12911;DHT22;6523;49.758;6.120;2023-04-03T07:25:57;3.00;99.90
12911;DHT22;6523;49.758;6.120;2023-04-03T07:28:23;3.20;99.90
12911;DHT22;6523;49.758;6.120;2023-04-03T07:30:54;3.30;99.90
12911;DHT22;6523;49.758;6.120;2023-04-03T07:33:24;3.40;99.90
12911;DHT22;6523;49.758;6.120;2023-04-03T07:35:49;3.50;99.90
12911;DHT22;6523;49.758;6.120;2023-04-03T07:38:15;3.60;99.90
12911;DHT22;6523;49.758;6.120;2023-04-03T07:40:46;3.70;99.90
12911;DHT22;6523;49.758;6.120;2023-04-03T07:43:12;3.80;99.90
12911;DHT22;6523;49.758;6.120;2023-04-03T07:45:37;3.90;99.90
12911;DHT22;6523;49.758;6.120;2023-04-03T07:48:03;3.90;99.90
12911;DHT22;6523;49.758;6.120;2023-04-03T07:50:29;4.00;99.90
12911;DHT22;6523;49.758;6.120;2023-04-03T07:52:56;4.10;99.90
12911;DHT22;6523;49.758;6.120;2023-04-03T07:55:23;4.20;99.90
12911;DHT22;6523;49.758;6.120;2023-04-03T07:57:49;4.30;99.90
12911;DHT22;6523;49.758;6.120;2023-04-03T08:00:15;4.40;99.90
12911;DHT22;6523;49.758;6.120;2023-04-03T08:02:43;4.50;99.90
12911;DHT22;6523;49.758;6.120;2023-04-03T08:05:09;4.50;99.90
12911;DHT22;6523;49.758;6.120;2023-04-03T08:07:37;4.50;99.90
12911;DHT22;6523;49.758;6.120;2023-04-03T08:10:03;4.50;99.90
12911;DHT22;6523;49.758;6.120;2023-04-03T08:12:29;4.70;99.90
12911;DHT22;6523;49.758;6.120;2023-04-03T08:14:55;4.80;99.90
12911;DHT22;6523;49.758;6.120;2023-04-03T08:17:21;4.90;99.90
12911;DHT22;6523;49.758;6.120;2023-04-03T08:19:46;5.10;99.90
12911;DHT22;6523;49.758;6.120;2023-04-03T08:22:12;5.10;99.90
12911;DHT22;6523;49.758;6.120;2023-04-03T08:24:38;5.20;99.90
12911;DHT22;6523;49.758;6.120;2023-04-03T08:27:03;5.30;99.90
12911;DHT22;6523;49.758;6.120;2023-04-03T08:29:29;5.50;99.90
12911;DHT22;6523;49.758;6.120;2023-04-03T08:31:55;5.70;99.90
12911;DHT22;6523;49.758;6.120;2023-04-03T08:34:20;6.00;99.90
12911;DHT22;6523;49.758;6.120;2023-04-03T08:36:47;5.90;99.90
12911;DHT22;6523;49.758;6.120;2023-04-03T08:39:12;6.20;99.90
12911;DHT22;6523;49.758;6.120;2023-04-03T08:41:40;6.10;99.90
12911;DHT22;6523;49.758;6.120;2023-04-03T08:49:49;5.30;99.90
12911;DHT22;6523;49.758;6.120;2023-04-03T08:52:28;5.40;99.90
12911;DHT22;6523;49.758;6.120;2023-04-03T08:54:59;6.10;99.90
12911;DHT22;6523;49.758;6.120;2023-04-03T08:57:40;5.90;99.90
12911;DHT22;6523;49.758;6.120;2023-04-03T09:00:20;5.50;99.90
12911;DHT22;6523;49.758;6.120;2023-04-03T09:02:50;5.70;99.90
12911;DHT22;6523;49.758;6.120;2023-04-03T09:05:29;5.50;99.90
12911;DHT22;6523;49.758;6.120;2023-04-03T09:10:29;5.30;99.90
12911;DHT22;6523;49.758;6.120;2023-04-03T09:15:50;5.10;99.90
12911;DHT22;6523;49.758;6.120;2023-04-03T09:18:23;5.10;99.90
12911;DHT22;6523;49.758;6.120;2023-04-03T09:26:16;5.30;99.90
12911;DHT22;6523;49.758;6.120;2023-04-03T09:28:43;5.50;99.90
12911;DHT22;6523;49.758;6.120;2023-04-03T09:31:25;5.40;99.90
12911;DHT22;6523;49.758;6.120;2023-04-03T09:33:56;5.60;99.90
12911;DHT22;6523;49.758;6.120;2023-04-03T09:36:59;7.00;99.90
12911;DHT22;6523;49.758;6.120;2023-04-03T09:39:31;7.00;99.90
12911;DHT22;6523;49.758;6.120;2023-04-03T09:42:02;6.70;99.90
12911;DHT22;6523;49.758;6.120;2023-04-03T09:44:34;7.30;99.90
12911;DHT22;6523;49.758;6.120;2023-04-03T09:49:49;8.00;99.90
12911;DHT22;6523;49.758;6.120;2023-04-03T09:52:23;8.20;99.90
12911;DHT22;6523;49.758;6.120;2023-04-03T09:54:49;7.60;99.90
12911;DHT22;6523;49.758;6.120;2023-04-03T09:57:15;7.30;99.90
12911;DHT22;6523;49.758;6.120;2023-04-03T09:59:57;7.20;99.90
12911;DHT22;6523;49.758;6.120;2023-04-03T10:02:37;8.40;99.90
12911;DHT22;6523;49.758;6.120;2023-04-03T10:10:47;9.90;99.90
12911;DHT22;6523;49.758;6.120;2023-04-03T10:13:16;10.30;99.90
12911;DHT22;6523;49.758;6.120;2023-04-03T10:16:12;10.50;99.90
12911;DHT22;6523;49.758;6.120;2023-04-03T10:18:45;10.00;99.90
12911;DHT22;6523;49.758;6.120;2023-04-03T10:21:29;10.10;99.90
12911;DHT22;6523;49.758;6.120;2023-04-03T10:26:44;9.50;99.90
12911;DHT22;6523;49.758;6.120;2023-04-03T10:29:16;9.30;99.90
12911;DHT22;6523;49.758;6.120;2023-04-03T10:34:40;10.10;99.90
12911;DHT22;6523;49.758;6.120;2023-04-03T10:37:30;10.10;99.90
12911;DHT22;6523;49.758;6.120;2023-04-03T10:43:02;11.00;99.90
12911;DHT22;6523;49.758;6.120;2023-04-03T10:48:02;10.70;99.90
12911;DHT22;6523;49.758;6.120;2023-04-03T10:56:19;11.60;99.90
12911;DHT22;6523;49.758;6.120;2023-04-03T10:58:56;11.50;99.90
12911;DHT22;6523;49.758;6.120;2023-04-03T11:01:26;10.80;99.90
12911;DHT22;6523;49.758;6.120;2023-04-03T11:03:58;10.50;99.90
12911;DHT22;6523;49.758;6.120;2023-04-03T11:06:26;10.10;99.90
12911;DHT22;6523;49.758;6.120;2023-04-03T11:09:07;9.00;99.90
12911;DHT22;6523;49.758;6.120;2023-04-03T11:11:40;8.40;99.90
12911;DHT22;6523;49.758;6.120;2023-04-03T11:14:09;10.50;99.90
12911;DHT22;6523;49.758;6.120;2023-04-03T11:16:48;11.00;99.90
12911;DHT22;6523;49.758;6.120;2023-04-03T11:19:20;11.20;99.90
12911;DHT22;6523;49.758;6.120;2023-04-03T11:21:55;11.40;99.90
12911;DHT22;6523;49.758;6.120;2023-04-03T11:24:25;11.50;99.90
12911;DHT22;6523;49.758;6.120;2023-04-03T11:26:54;11.60;99.90
12911;DHT22;6523;49.758;6.120;2023-04-03T11:29:32;11.40;99.90
12911;DHT22;6523;49.758;6.120;2023-04-03T11:34:56;12.00;99.90
12911;DHT22;6523;49.758;6.120;2023-04-03T11:37:43;12.10;99.90
12911;DHT22;6523;49.758;6.120;2023-04-03T11:42:48;12.00;99.90
12911;DHT22;6523;49.758;6.120;2023-04-03T11:47:56;11.70;99.90
12911;DHT22;6523;49.758;6.120;2023-04-03T12:00:53;12.90;99.90
12911;DHT22;6523;49.758;6.120;2023-04-03T12:16:22;12.10;99.90
12911;DHT22;6523;49.758;6.120;2023-04-03T12:35:37;12.80;99.90
12911;DHT22;6523;49.758;6.120;2023-04-03T12:43:36;12.10;99.90
12911;DHT22;6523;49.758;6.120;2023-04-03T12:51:35;12.30;99.90
12911;DHT22;6523;49.758;6.120;2023-04-03T12:54:13;12.90;99.90
12911;DHT22;6523;49.758;6.120;2023-04-03T12:56:40;13.20;99.90
12911;DHT22;6523;49.758;6.120;2023-04-03T13:01:40;13.20;99.90
12911;DHT22;6523;49.758;6.120;2023-04-03T13:04:06;12.90;99.90
12911;DHT22;6523;49.758;6.120;2023-04-03T13:06:38;13.20;99.90
12911;DHT22;6523;49.758;6.120;2023-04-03T13:09:04;13.80;99.90
12911;DHT22;6523;49.758;6.120;2023-04-03T13:11:36;13.50;99.90
12911;DHT22;6523;49.758;6.120;2023-04-03T13:14:14;13.30;99.90
12911;DHT22;6523;49.758;6.120;2023-04-03T13:16:40;13.00;99.90
12911;DHT22;6523;49.758;6.120;2023-04-03T13:19:15;12.70;99.90
12911;DHT22;6523;49.758;6.120;2023-04-03T13:21:41;13.00;99.90
12911;DHT22;6523;49.758;6.120;2023-04-03T13:24:09;13.00;99.90
12911;DHT22;6523;49.758;6.120;2023-04-03T13:26:35;13.40;99.90
12911;DHT22;6523;49.758;6.120;2023-04-03T13:29:28;13.70;99.90
12911;DHT22;6523;49.758;6.120;2023-04-03T13:31:55;13.50;99.90
12911;DHT22;6523;49.758;6.120;2023-04-03T13:34:23;12.90;99.90
12911;DHT22;6523;49.758;6.120;2023-04-03T13:41:51;13.20;99.90
12911;DHT22;6523;49.758;6.120;2023-04-03T13:44:26;13.10;99.90
12911;DHT22;6523;49.758;6.120;2023-04-03T13:49:27;13.50;99.90
12911;DHT22;6523;49.758;6.120;2023-04-03T13:51:54;13.20;99.90
12911;DHT22;6523;49.758;6.120;2023-04-03T13:54:28;13.60;99.90
12911;DHT22;6523;49.758;6.120;2023-04-03T13:56:57;13.60;99.90
12911;DHT22;6523;49.758;6.120;2023-04-03T13:59:35;13.70;99.90
12911;DHT22;6523;49.758;6.120;2023-04-03T14:04:32;14.00;99.90
12911;DHT22;6523;49.758;6.120;2023-04-03T14:06:58;13.40;99.90
12911;DHT22;6523;49.758;6.120;2023-04-03T14:09:26;13.40;99.90
12911;DHT22;6523;49.758;6.120;2023-04-03T14:11:55;13.70;99.90
12911;DHT22;6523;49.758;6.120;2023-04-03T14:14:26;13.20;99.90
12911;DHT22;6523;49.758;6.120;2023-04-03T14:16:57;13.50;99.90
12911;DHT22;6523;49.758;6.120;2023-04-03T14:19:27;13.70;99.90
12911;DHT22;6523;49.758;6.120;2023-04-03T14:21:54;13.00;99.90
12911;DHT22;6523;49.758;6.120;2023-04-03T14:24:20;12.40;99.90
12911;DHT22;6523;49.758;6.120;2023-04-03T14:26:47;12.70;99.90
12911;DHT22;6523;49.758;6.120;2023-04-03T14:29:13;13.60;99.90
12911;DHT22;6523;49.758;6.120;2023-04-03T14:31:41;13.10;99.90
12911;DHT22;6523;49.758;6.120;2023-04-03T14:34:08;13.50;99.90
12911;DHT22;6523;49.758;6.120;2023-04-03T14:36:34;13.70;99.90
12911;DHT22;6523;49.758;6.120;2023-04-03T14:39:00;14.10;99.90
12911;DHT22;6523;49.758;6.120;2023-04-03T14:41:26;13.60;99.90
12911;DHT22;6523;49.758;6.120;2023-04-03T14:43:53;13.40;99.90
12911;DHT22;6523;49.758;6.120;2023-04-03T14:46:24;13.70;99.90
12911;DHT22;6523;49.758;6.120;2023-04-03T14:48:51;13.30;99.90
12911;DHT22;6523;49.758;6.120;2023-04-03T14:51:17;14.00;99.90
12911;DHT22;6523;49.758;6.120;2023-04-03T14:53:43;14.20;99.90
12911;DHT22;6523;49.758;6.120;2023-04-03T14:56:20;13.70;99.90
12911;DHT22;6523;49.758;6.120;2023-04-03T14:58:56;13.50;99.90
12911;DHT22;6523;49.758;6.120;2023-04-03T15:01:22;13.50;99.90
12911;DHT22;6523;49.758;6.120;2023-04-03T15:03:49;13.60;99.90
12911;DHT22;6523;49.758;6.120;2023-04-03T15:06:15;13.40;99.90
12911;DHT22;6523;49.758;6.120;2023-04-03T15:08:42;14.10;99.90
12911;DHT22;6523;49.758;6.120;2023-04-03T15:11:09;13.60;99.90
12911;DHT22;6523;49.758;6.120;2023-04-03T15:13:36;13.20;99.90
12911;DHT22;6523;49.758;6.120;2023-04-03T15:16:02;13.10;99.90
12911;DHT22;6523;49.758;6.120;2023-04-03T15:18:33;13.60;99.90
12911;DHT22;6523;49.758;6.120;2023-04-03T15:21:00;14.00;99.90
12911;DHT22;6523;49.758;6.120;2023-04-03T15:23:26;13.50;99.90
12911;DHT22;6523;49.758;6.120;2023-04-03T15:25:54;13.40;99.90
12911;DHT22;6523;49.758;6.120;2023-04-03T15:28:26;13.70;99.90
12911;DHT22;6523;49.758;6.120;2023-04-03T15:30:53;12.70;99.90
12911;DHT22;6523;49.758;6.120;2023-04-03T15:33:19;12.70;99.90
12911;DHT22;6523;49.758;6.120;2023-04-03T15:35:44;12.70;99.90
12911;DHT22;6523;49.758;6.120;2023-04-03T15:38:10;13.20;99.90
12911;DHT22;6523;49.758;6.120;2023-04-03T15:40:36;13.00;99.90
12911;DHT22;6523;49.758;6.120;2023-04-03T15:43:01;12.70;99.90
12911;DHT22;6523;49.758;6.120;2023-04-03T15:45:30;12.90;99.90
12911;DHT22;6523;49.758;6.120;2023-04-03T15:47:57;13.30;99.90
12911;DHT22;6523;49.758;6.120;2023-04-03T15:50:22;12.40;99.90
12911;DHT22;6523;49.758;6.120;2023-04-03T15:52:50;12.70;99.90
12911;DHT22;6523;49.758;6.120;2023-04-03T15:55:24;12.60;99.90
12911;DHT22;6523;49.758;6.120;2023-04-03T15:57:49;12.10;99.90
12911;DHT22;6523;49.758;6.120;2023-04-03T16:00:15;11.70;99.90
12911;DHT22;6523;49.758;6.120;2023-04-03T16:02:42;11.60;99.90
12911;DHT22;6523;49.758;6.120;2023-04-03T16:05:09;11.40;99.90
12911;DHT22;6523;49.758;6.120;2023-04-03T16:07:39;11.90;99.90
12911;DHT22;6523;49.758;6.120;2023-04-03T16:10:07;11.70;99.90
12911;DHT22;6523;49.758;6.120;2023-04-03T16:12:33;11.10;99.90
12911;DHT22;6523;49.758;6.120;2023-04-03T16:14:58;10.90;99.90
12911;DHT22;6523;49.758;6.120;2023-04-03T16:17:25;11.20;99.90
12911;DHT22;6523;49.758;6.120;2023-04-03T16:19:51;11.70;99.90
12911;DHT22;6523;49.758;6.120;2023-04-03T16:22:17;11.80;99.90
12911;DHT22;6523;49.758;6.120;2023-04-03T16:24:43;11.40;99.90
12911;DHT22;6523;49.758;6.120;2023-04-03T16:27:08;10.80;99.90
12911;DHT22;6523;49.758;6.120;2023-04-03T16:29:34;10.40;99.90
12911;DHT22;6523;49.758;6.120;2023-04-03T16:31:59;10.50;99.90
12911;DHT22;6523;49.758;6.120;2023-04-03T16:34:26;10.20;99.90
12911;DHT22;6523;49.758;6.120;2023-04-03T16:36:52;10.30;99.90
12911;DHT22;6523;49.758;6.120;2023-04-03T16:39:18;10.30;99.90
12911;DHT22;6523;49.758;6.120;2023-04-03T16:41:43;10.00;99.90
12911;DHT22;6523;49.758;6.120;2023-04-03T16:44:10;9.80;99.90
12911;DHT22;6523;49.758;6.120;2023-04-03T16:46:36;9.70;99.90
12911;DHT22;6523;49.758;6.120;2023-04-03T16:49:02;9.70;99.90
12911;DHT22;6523;49.758;6.120;2023-04-03T16:51:28;9.50;99.90
12911;DHT22;6523;49.758;6.120;2023-04-03T16:53:53;9.50;99.90
12911;DHT22;6523;49.758;6.120;2023-04-03T16:56:19;9.40;99.90
12911;DHT22;6523;49.758;6.120;2023-04-03T16:58:45;9.70;99.90
12911;DHT22;6523;49.758;6.120;2023-04-03T17:01:16;9.40;99.90
12911;DHT22;6523;49.758;6.120;2023-04-03T17:03:41;9.70;99.90
12911;DHT22;6523;49.758;6.120;2023-04-03T17:06:08;9.20;99.90
12911;DHT22;6523;49.758;6.120;2023-04-03T17:08:44;9.10;99.90
12911;DHT22;6523;49.758;6.120;2023-04-03T17:11:10;9.00;99.90
12911;DHT22;6523;49.758;6.120;2023-04-03T17:13:35;9.00;99.90
12911;DHT22;6523;49.758;6.120;2023-04-03T17:16:02;8.90;99.90
12911;DHT22;6523;49.758;6.120;2023-04-03T17:18:30;8.90;99.90
12911;DHT22;6523;49.758;6.120;2023-04-03T17:20:56;8.90;99.90
12911;DHT22;6523;49.758;6.120;2023-04-03T17:23:24;9.00;99.90
12911;DHT22;6523;49.758;6.120;2023-04-03T17:25:50;8.90;99.90
12911;DHT22;6523;49.758;6.120;2023-04-03T17:28:16;8.50;99.90
12911;DHT22;6523;49.758;6.120;2023-04-03T17:30:42;8.20;99.90
12911;DHT22;6523;49.758;6.120;2023-04-03T17:33:07;8.10;99.90
12911;DHT22;6523;49.758;6.120;2023-04-03T17:35:33;8.00;99.90
12911;DHT22;6523;49.758;6.120;2023-04-03T17:37:58;7.70;99.90
12911;DHT22;6523;49.758;6.120;2023-04-03T17:40:24;7.60;99.90
12911;DHT22;6523;49.758;6.120;2023-04-03T17:42:50;7.50;99.90
12911;DHT22;6523;49.758;6.120;2023-04-03T17:45:15;7.20;99.90
12911;DHT22;6523;49.758;6.120;2023-04-03T17:47:41;7.50;99.90
12911;DHT22;6523;49.758;6.120;2023-04-03T17:50:07;7.70;99.90
12911;DHT22;6523;49.758;6.120;2023-04-03T17:52:33;7.60;99.90
12911;DHT22;6523;49.758;6.120;2023-04-03T17:54:58;7.20;99.90